This is the latest recevied weather packets stored in our database for station/object IT9DBI-3. If no packets are shown the sender has not sent any weather packets the latest 10 day(s).
| Time | Temp. | Humidity | Pressure | Rain* | Wind** | Luminosity | Snow |
|---|---|---|---|---|---|---|---|
| 1777955572 | 14.44° C | 89% | 1016.4 hPa | - | - | - | - |
| 1777954370 | 14.44° C | 87% | 1016.2 hPa | - | - | - | - |
| 1777953169 | 15° C | 86% | 1016 hPa | - | - | - | - |
| 1777951968 | 15° C | 86% | 1016 hPa | - | - | - | - |
| 1777950767 | 15° C | 86% | 1016 hPa | - | - | - | - |
| 1777949565 | 15° C | 87% | 1016.1 hPa | - | - | - | - |
| 1777948364 | 15° C | 88% | 1016.3 hPa | - | - | - | - |
| 1777947161 | 13.89° C | 90% | 1016.5 hPa | - | - | - | - |
| 1777944755 | 13.89° C | 88% | 1016.8 hPa | - | - | - | - |
| 1777943554 | 13.89° C | 87% | 1016.9 hPa | - | - | - | - |
| 1777942352 | 14.44° C | 87% | 1016.7 hPa | - | - | - | - |
| 1777941151 | 13.89° C | 90% | 1016.9 hPa | - | - | - | - |
| 1777939950 | 14.44° C | 87% | 1017 hPa | - | - | - | - |
| 1777938749 | 14.44° C | 85% | 1017.4 hPa | - | - | - | - |
| 1777937547 | 14.44° C | 84% | 1017.5 hPa | - | - | - | - |
| 1777936346 | 15° C | 83% | 1017.6 hPa | - | - | - | - |
| 1777935145 | 15.56° C | 79% | 1017.8 hPa | - | - | - | - |
| 1777933943 | 15.56° C | 79% | 1017.7 hPa | - | - | - | - |
| 1777932742 | 15.56° C | 78% | 1017.8 hPa | - | - | - | - |
| 1777931541 | 16.11° C | 74% | 1018 hPa | - | - | - | - |
| 1777930339 | 15° C | 82% | 1018.1 hPa | - | - | - | - |
| 1777929138 | 15° C | 83% | 1018.2 hPa | - | - | - | - |
| 1777927937 | 14.44° C | 82% | 1018.1 hPa | - | - | - | - |
| 1777926735 | 15.56° C | 77% | 1018.2 hPa | - | - | - | - |
| 1777925534 | 15.56° C | 80% | 1018.6 hPa | - | - | - | - |
* Rain since midnight (hover to see other rain measurements)
** Current wind speed in m/s (hover to see current wind gust speed)